sensor_id;sensor_type;location;lat;lon;timestamp;pressure;altitude;pressure_sealevel;temperature;humidity
48846;BME280;34665;51.886;5.436;2023-02-16T00:01:33;102213.28;;;13.47;92.08
48846;BME280;34665;51.886;5.436;2023-02-16T00:04:00;102210.66;;;13.39;93.66
48846;BME280;34665;51.886;5.436;2023-02-16T00:06:28;102211.53;;;13.54;92.78
48846;BME280;34665;51.886;5.436;2023-02-16T00:08:54;102228.03;;;13.89;89.94
48846;BME280;34665;51.886;5.436;2023-02-16T00:11:32;102217.00;;;14.29;87.46
48846;BME280;34665;51.886;5.436;2023-02-16T00:14:18;102218.34;;;13.80;90.34
48846;BME280;34665;51.886;5.436;2023-02-16T00:16:47;102214.09;;;13.86;89.14
48846;BME280;34665;51.886;5.436;2023-02-16T00:21:43;102216.25;;;13.52;90.38
48846;BME280;34665;51.886;5.436;2023-02-16T00:24:08;102214.31;;;13.38;90.95
48846;BME280;34665;51.886;5.436;2023-02-16T00:26:34;102215.41;;;13.28;91.63
48846;BME280;34665;51.886;5.436;2023-02-16T00:28:59;102214.00;;;13.41;90.83
48846;BME280;34665;51.886;5.436;2023-02-16T00:31:26;102217.16;;;13.21;91.85
48846;BME280;34665;51.886;5.436;2023-02-16T00:33:57;102213.28;;;13.47;90.57
48846;BME280;34665;51.886;5.436;2023-02-16T00:36:22;102207.06;;;13.23;92.13
48846;BME280;34665;51.886;5.436;2023-02-16T00:38:48;102208.66;;;13.32;91.81
48846;BME280;34665;51.886;5.436;2023-02-16T00:41:16;102202.28;;;13.57;90.76
48846;BME280;34665;51.886;5.436;2023-02-16T00:44:04;102205.03;;;13.25;91.89
48846;BME280;34665;51.886;5.436;2023-02-16T00:46:30;102209.31;;;13.34;91.67
48846;BME280;34665;51.886;5.436;2023-02-16T00:48:56;102202.75;;;13.60;90.55
48846;BME280;34665;51.886;5.436;2023-02-16T00:51:23;102192.81;;;13.38;91.82
48846;BME280;34665;51.886;5.436;2023-02-16T00:53:49;102196.44;;;13.30;92.06
48846;BME280;34665;51.886;5.436;2023-02-16T00:56:17;102207.91;;;13.47;92.07
48846;BME280;34665;51.886;5.436;2023-02-16T00:58:44;102209.59;;;13.48;90.30
48846;BME280;34665;51.886;5.436;2023-02-16T01:01:14;102191.31;;;13.20;91.91
48846;BME280;34665;51.886;5.436;2023-02-16T01:03:41;102195.72;;;13.36;91.81
48846;BME280;34665;51.886;5.436;2023-02-16T01:06:09;102188.50;;;13.13;92.86
48846;BME280;34665;51.886;5.436;2023-02-16T01:09:05;102198.94;;;13.31;92.00
48846;BME280;34665;51.886;5.436;2023-02-16T01:11:50;102198.19;;;13.46;91.68
48846;BME280;34665;51.886;5.436;2023-02-16T01:14:16;102199.06;;;13.15;93.26
48846;BME280;34665;51.886;5.436;2023-02-16T01:16:41;102198.59;;;13.11;93.67
48846;BME280;34665;51.886;5.436;2023-02-16T01:19:10;102201.91;;;13.37;92.23
48846;BME280;34665;51.886;5.436;2023-02-16T01:21:36;102189.38;;;13.05;93.98
48846;BME280;34665;51.886;5.436;2023-02-16T01:24:01;102184.91;;;13.21;92.66
48846;BME280;34665;51.886;5.436;2023-02-16T01:26:41;102181.94;;;13.16;93.87
48846;BME280;34665;51.886;5.436;2023-02-16T01:29:14;102175.59;;;13.09;93.58
48846;BME280;34665;51.886;5.436;2023-02-16T01:31:42;102175.41;;;12.87;94.88
48846;BME280;34665;51.886;5.436;2023-02-16T01:34:08;102170.75;;;13.27;93.05
48846;BME280;34665;51.886;5.436;2023-02-16T01:36:39;102168.16;;;13.57;90.96
48846;BME280;34665;51.886;5.436;2023-02-16T01:39:06;102188.03;;;13.71;89.87
48846;BME280;34665;51.886;5.436;2023-02-16T01:41:55;102170.41;;;13.30;91.47
48846;BME280;34665;51.886;5.436;2023-02-16T01:44:48;102169.56;;;13.53;89.61
48846;BME280;34665;51.886;5.436;2023-02-16T01:47:39;102165.38;;;13.27;91.68
48846;BME280;34665;51.886;5.436;2023-02-16T01:50:27;102166.47;;;13.18;91.71
48846;BME280;34665;51.886;5.436;2023-02-16T01:53:19;102157.78;;;13.16;91.97
48846;BME280;34665;51.886;5.436;2023-02-16T01:55:48;102165.94;;;13.46;89.76
48846;BME280;34665;51.886;5.436;2023-02-16T01:58:33;102165.50;;;13.11;91.27
48846;BME280;34665;51.886;5.436;2023-02-16T02:03:32;102151.66;;;13.22;91.33
48846;BME280;34665;51.886;5.436;2023-02-16T02:06:26;102156.16;;;13.30;91.46
48846;BME280;34665;51.886;5.436;2023-02-16T02:12:08;102147.28;;;13.06;93.72
48846;BME280;34665;51.886;5.436;2023-02-16T02:14:38;102154.72;;;13.19;93.43
48846;BME280;34665;51.886;5.436;2023-02-16T02:17:12;102149.63;;;13.47;91.10
48846;BME280;34665;51.886;5.436;2023-02-16T02:25:57;102146.22;;;13.69;91.05
48846;BME280;34665;51.886;5.436;2023-02-16T02:31:10;102133.16;;;13.27;93.75
48846;BME280;34665;51.886;5.436;2023-02-16T02:36:36;102135.91;;;13.72;90.29
48846;BME280;34665;51.886;5.436;2023-02-16T02:39:32;102137.41;;;13.45;90.80
48846;BME280;34665;51.886;5.436;2023-02-16T02:42:13;102132.84;;;13.60;90.25
48846;BME280;34665;51.886;5.436;2023-02-16T02:44:56;102138.53;;;13.66;88.92
48846;BME280;34665;51.886;5.436;2023-02-16T02:47:36;102131.56;;;13.56;90.00
48846;BME280;34665;51.886;5.436;2023-02-16T02:50:02;102116.44;;;13.55;91.28
48846;BME280;34665;51.886;5.436;2023-02-16T02:52:28;102116.81;;;13.67;90.45
48846;BME280;34665;51.886;5.436;2023-02-16T02:54:54;102121.91;;;13.24;94.51
48846;BME280;34665;51.886;5.436;2023-02-16T02:57:43;102122.63;;;13.41;94.02
48846;BME280;34665;51.886;5.436;2023-02-16T03:00:36;102117.41;;;13.24;94.49
48846;BME280;34665;51.886;5.436;2023-02-16T03:03:23;102115.88;;;13.07;94.65
48846;BME280;34665;51.886;5.436;2023-02-16T03:05:56;102116.16;;;13.12;94.12
48846;BME280;34665;51.886;5.436;2023-02-16T03:08:29;102121.84;;;13.17;94.18
48846;BME280;34665;51.886;5.436;2023-02-16T03:11:07;102111.41;;;13.37;92.45
48846;BME280;34665;51.886;5.436;2023-02-16T03:13:57;102103.28;;;13.45;91.56
48846;BME280;34665;51.886;5.436;2023-02-16T03:16:31;102106.56;;;13.56;90.39
48846;BME280;34665;51.886;5.436;2023-02-16T03:18:58;102105.44;;;13.50;90.21
48846;BME280;34665;51.886;5.436;2023-02-16T03:21:44;102099.91;;;13.28;90.90
48846;BME280;34665;51.886;5.436;2023-02-16T03:24:30;102090.91;;;13.21;91.37
48846;BME280;34665;51.886;5.436;2023-02-16T03:27:20;102093.13;;;13.17;91.06
48846;BME280;34665;51.886;5.436;2023-02-16T03:30:06;102094.59;;;13.20;90.67
48846;BME280;34665;51.886;5.436;2023-02-16T03:32:33;102090.16;;;12.89;91.20
48846;BME280;34665;51.886;5.436;2023-02-16T03:34:59;102090.78;;;13.14;90.80
48846;BME280;34665;51.886;5.436;2023-02-16T03:37:25;102082.81;;;13.06;90.98
48846;BME280;34665;51.886;5.436;2023-02-16T03:39:51;102084.13;;;12.87;91.97
48846;BME280;34665;51.886;5.436;2023-02-16T03:42:35;102087.72;;;13.02;90.86
48846;BME280;34665;51.886;5.436;2023-02-16T03:45:00;102087.63;;;13.49;88.92
48846;BME280;34665;51.886;5.436;2023-02-16T03:47:26;102082.66;;;13.38;88.30
48846;BME280;34665;51.886;5.436;2023-02-16T03:49:51;102085.00;;;13.41;87.79
48846;BME280;34665;51.886;5.436;2023-02-16T03:52:17;102088.13;;;13.29;89.21
48846;BME280;34665;51.886;5.436;2023-02-16T03:54:43;102092.81;;;13.12;89.88
48846;BME280;34665;51.886;5.436;2023-02-16T03:57:08;102103.56;;;13.12;89.49
48846;BME280;34665;51.886;5.436;2023-02-16T03:59:34;102106.91;;;13.14;89.83
48846;BME280;34665;51.886;5.436;2023-02-16T04:01:59;102116.16;;;13.12;90.62
48846;BME280;34665;51.886;5.436;2023-02-16T04:04:25;102117.31;;;12.94;92.17
48846;BME280;34665;51.886;5.436;2023-02-16T04:06:51;102121.78;;;12.79;93.87
48846;BME280;34665;51.886;5.436;2023-02-16T04:09:16;102113.94;;;12.45;95.94
48846;BME280;34665;51.886;5.436;2023-02-16T04:11:42;102113.88;;;12.85;95.04
48846;BME280;34665;51.886;5.436;2023-02-16T04:14:27;102110.78;;;13.12;93.89
48846;BME280;34665;51.886;5.436;2023-02-16T04:16:52;102111.34;;;12.84;96.83
48846;BME280;34665;51.886;5.436;2023-02-16T04:19:20;102109.97;;;13.11;95.26
48846;BME280;34665;51.886;5.436;2023-02-16T04:21:48;102107.56;;;13.55;91.07
48846;BME280;34665;51.886;5.436;2023-02-16T04:24:14;102111.19;;;13.24;92.96
48846;BME280;34665;51.886;5.436;2023-02-16T04:26:39;102109.56;;;12.99;94.44
48846;BME280;34665;51.886;5.436;2023-02-16T04:29:04;102105.19;;;12.98;94.61
48846;BME280;34665;51.886;5.436;2023-02-16T04:31:30;102110.78;;;13.12;94.08
48846;BME280;34665;51.886;5.436;2023-02-16T04:33:56;102113.75;;;12.79;95.53
48846;BME280;34665;51.886;5.436;2023-02-16T04:36:21;102109.44;;;12.69;96.58
48846;BME280;34665;51.886;5.436;2023-02-16T04:38:47;102113.66;;;12.87;95.41
48846;BME280;34665;51.886;5.436;2023-02-16T04:41:12;102100.25;;;13.25;93.82
48846;BME280;34665;51.886;5.436;2023-02-16T04:43:38;102098.44;;;13.02;94.39
48846;BME280;34665;51.886;5.436;2023-02-16T04:46:03;102098.13;;;13.20;93.88
48846;BME280;34665;51.886;5.436;2023-02-16T04:48:29;102093.56;;;13.06;94.13
48846;BME280;34665;51.886;5.436;2023-02-16T04:50:54;102095.16;;;13.30;93.11
48846;BME280;34665;51.886;5.436;2023-02-16T04:53:20;102099.03;;;13.13;94.48
48846;BME280;34665;51.886;5.436;2023-02-16T04:55:47;102100.97;;;12.81;96.58
48846;BME280;34665;51.886;5.436;2023-02-16T04:58:13;102096.44;;;12.81;97.30
48846;BME280;34665;51.886;5.436;2023-02-16T05:00:39;102099.06;;;12.89;96.50
48846;BME280;34665;51.886;5.436;2023-02-16T05:03:05;102100.28;;;13.02;96.33
48846;BME280;34665;51.886;5.436;2023-02-16T05:05:30;102108.09;;;13.12;96.09
48846;BME280;34665;51.886;5.436;2023-02-16T05:07:56;102105.59;;;12.87;97.31
48846;BME280;34665;51.886;5.436;2023-02-16T05:10:21;102098.31;;;13.19;95.47
48846;BME280;34665;51.886;5.436;2023-02-16T05:12:47;102099.16;;;13.34;93.57
48846;BME280;34665;51.886;5.436;2023-02-16T05:15:31;102098.31;;;13.19;94.57
48846;BME280;34665;51.886;5.436;2023-02-16T05:17:57;102094.38;;;13.07;96.14
48846;BME280;34665;51.886;5.436;2023-02-16T05:20:22;102100.16;;;13.18;96.38
48846;BME280;34665;51.886;5.436;2023-02-16T05:23:07;102095.00;;;12.94;97.53
48846;BME280;34665;51.886;5.436;2023-02-16T05:25:33;102085.19;;;13.39;94.67
48846;BME280;34665;51.886;5.436;2023-02-16T05:27:58;102085.50;;;13.74;92.46
48846;BME280;34665;51.886;5.436;2023-02-16T05:30:24;102080.06;;;14.19;89.71
48846;BME280;34665;51.886;5.436;2023-02-16T05:32:50;102081.44;;;13.79;91.46
48846;BME280;34665;51.886;5.436;2023-02-16T05:35:15;102084.75;;;13.81;91.61
48846;BME280;34665;51.886;5.436;2023-02-16T05:37:41;102094.13;;;13.70;92.95
48846;BME280;34665;51.886;5.436;2023-02-16T05:40:07;102100.53;;;13.30;94.95
48846;BME280;34665;51.886;5.436;2023-02-16T05:42:32;102070.88;;;13.24;95.64
48846;BME280;34665;51.886;5.436;2023-02-16T05:44:58;102072.09;;;13.21;96.07
48846;BME280;34665;51.886;5.436;2023-02-16T05:47:23;102073.75;;;13.75;93.76
48846;BME280;34665;51.886;5.436;2023-02-16T05:49:49;102088.19;;;13.06;97.18
48846;BME280;34665;51.886;5.436;2023-02-16T05:52:14;102089.28;;;13.12;97.60
48846;BME280;34665;51.886;5.436;2023-02-16T05:54:40;102088.09;;;13.53;94.50
48846;BME280;34665;51.886;5.436;2023-02-16T05:57:05;102093.75;;;13.19;95.78
48846;BME280;34665;51.886;5.436;2023-02-16T05:59:31;102092.44;;;13.00;97.74
48846;BME280;34665;51.886;5.436;2023-02-16T06:01:56;102085.41;;;13.14;97.19
48846;BME280;34665;51.886;5.436;2023-02-16T06:04:22;102084.22;;;13.17;96.96
48846;BME280;34665;51.886;5.436;2023-02-16T06:06:48;102079.66;;;13.86;91.58
48846;BME280;34665;51.886;5.436;2023-02-16T06:09:13;102074.47;;;13.69;92.24
48846;BME280;34665;51.886;5.436;2023-02-16T06:11:39;102067.72;;;13.73;90.32
48846;BME280;34665;51.886;5.436;2023-02-16T06:14:11;102083.56;;;13.53;91.90
48846;BME280;34665;51.886;5.436;2023-02-16T06:16:38;102068.72;;;13.72;91.91
48846;BME280;34665;51.886;5.436;2023-02-16T06:19:05;102072.63;;;13.85;90.13
48846;BME280;34665;51.886;5.436;2023-02-16T06:21:30;102072.34;;;13.65;91.56
48846;BME280;34665;51.886;5.436;2023-02-16T06:23:57;102075.69;;;13.13;96.04
48846;BME280;34665;51.886;5.436;2023-02-16T06:26:23;102086.38;;;13.37;93.50
48846;BME280;34665;51.886;5.436;2023-02-16T06:28:48;102090.31;;;13.64;92.37
48846;BME280;34665;51.886;5.436;2023-02-16T06:31:14;102089.50;;;13.64;91.78
48846;BME280;34665;51.886;5.436;2023-02-16T06:33:40;102087.63;;;13.49;93.10
48846;BME280;34665;51.886;5.436;2023-02-16T06:36:05;102089.88;;;13.75;92.66
48846;BME280;34665;51.886;5.436;2023-02-16T06:38:31;102097.25;;;13.58;92.43
48846;BME280;34665;51.886;5.436;2023-02-16T06:40:57;102090.31;;;13.64;92.67
48846;BME280;34665;51.886;5.436;2023-02-16T06:43:22;102096.63;;;13.56;93.54
48846;BME280;34665;51.886;5.436;2023-02-16T06:45:48;102104.03;;;13.69;92.52
48846;BME280;34665;51.886;5.436;2023-02-16T06:48:13;102104.34;;;13.36;94.57
48846;BME280;34665;51.886;5.436;2023-02-16T06:50:39;102102.56;;;13.52;92.92
48846;BME280;34665;51.886;5.436;2023-02-16T06:53:05;102090.16;;;13.51;93.38
48846;BME280;34665;51.886;5.436;2023-02-16T06:55:30;102098.38;;;13.64;92.45
48846;BME280;34665;51.886;5.436;2023-02-16T06:58:00;102095.31;;;13.52;94.00
48846;BME280;34665;51.886;5.436;2023-02-16T07:00:25;102088.94;;;13.53;93.32
48846;BME280;34665;51.886;5.436;2023-02-16T07:02:51;102091.81;;;13.82;92.12
48846;BME280;34665;51.886;5.436;2023-02-16T07:05:17;102091.59;;;13.83;92.14
48846;BME280;34665;51.886;5.436;2023-02-16T07:07:42;102097.47;;;13.72;93.25
48846;BME280;34665;51.886;5.436;2023-02-16T07:10:08;102094.59;;;13.88;92.51
48846;BME280;34665;51.886;5.436;2023-02-16T07:12:34;102108.69;;;13.90;91.74
48846;BME280;34665;51.886;5.436;2023-02-16T07:15:00;102094.50;;;13.82;92.26
48846;BME280;34665;51.886;5.436;2023-02-16T07:17:25;102093.63;;;13.36;95.10
48846;BME280;34665;51.886;5.436;2023-02-16T07:19:51;102103.59;;;13.66;95.10
48846;BME280;34665;51.886;5.436;2023-02-16T07:22:16;102100.59;;;13.60;93.66
48846;BME280;34665;51.886;5.436;2023-02-16T07:24:42;102111.66;;;13.81;94.08
48846;BME280;34665;51.886;5.436;2023-02-16T07:27:08;102106.44;;;13.64;94.87
48846;BME280;34665;51.886;5.436;2023-02-16T07:29:34;102107.66;;;13.61;95.46
48846;BME280;34665;51.886;5.436;2023-02-16T07:32:01;102114.13;;;13.82;93.75
48846;BME280;34665;51.886;5.436;2023-02-16T07:34:26;102108.13;;;13.50;96.39
48846;BME280;34665;51.886;5.436;2023-02-16T07:36:52;102110.44;;;13.83;95.15
48846;BME280;34665;51.886;5.436;2023-02-16T07:39:17;102110.53;;;13.90;94.67
48846;BME280;34665;51.886;5.436;2023-02-16T07:41:43;102103.09;;;13.92;94.81
48846;BME280;34665;51.886;5.436;2023-02-16T07:44:08;102113.19;;;14.20;94.16
48846;BME280;34665;51.886;5.436;2023-02-16T07:46:34;102114.16;;;13.97;94.36
48846;BME280;34665;51.886;5.436;2023-02-16T07:48:59;102112.78;;;14.38;91.89
48846;BME280;34665;51.886;5.436;2023-02-16T07:51:27;102121.03;;;14.37;90.91
48846;BME280;34665;51.886;5.436;2023-02-16T07:53:53;102124.47;;;14.30;92.07
48846;BME280;34665;51.886;5.436;2023-02-16T07:56:20;102121.19;;;14.13;93.04
48846;BME280;34665;51.886;5.436;2023-02-16T07:58:46;102124.34;;;14.02;93.01
48846;BME280;34665;51.886;5.436;2023-02-16T08:01:12;102123.16;;;14.41;91.54
48846;BME280;34665;51.886;5.436;2023-02-16T08:03:42;102133.63;;;14.88;88.60
48846;BME280;34665;51.886;5.436;2023-02-16T08:06:08;102125.97;;;14.70;89.46
48846;BME280;34665;51.886;5.436;2023-02-16T08:08:35;102134.50;;;14.73;89.59
48846;BME280;34665;51.886;5.436;2023-02-16T08:11:21;102148.34;;;15.14;87.19
48846;BME280;34665;51.886;5.436;2023-02-16T08:13:48;102147.69;;;14.68;88.88
48846;BME280;34665;51.886;5.436;2023-02-16T08:16:25;102149.63;;;14.96;88.25
48846;BME280;34665;51.886;5.436;2023-02-16T08:18:51;102155.41;;;15.15;87.58
48846;BME280;34665;51.886;5.436;2023-02-16T08:21:23;102146.06;;;14.89;88.19
48846;BME280;34665;51.886;5.436;2023-02-16T08:23:53;102147.34;;;15.43;86.51
48846;BME280;34665;51.886;5.436;2023-02-16T08:26:20;102153.38;;;14.58;91.02
48846;BME280;34665;51.886;5.436;2023-02-16T08:28:47;102146.06;;;14.52;90.93
48846;BME280;34665;51.886;5.436;2023-02-16T08:31:25;102148.31;;;14.70;90.82
48846;BME280;34665;51.886;5.436;2023-02-16T08:33:54;102151.69;;;14.72;91.23
48846;BME280;34665;51.886;5.436;2023-02-16T08:36:30;102145.28;;;14.22;93.25
48846;BME280;34665;51.886;5.436;2023-02-16T08:38:57;102145.16;;;14.82;91.17
48846;BME280;34665;51.886;5.436;2023-02-16T08:41:28;102156.25;;;14.57;91.64
48846;BME280;34665;51.886;5.436;2023-02-16T08:43:54;102155.63;;;14.55;92.40
48846;BME280;34665;51.886;5.436;2023-02-16T08:46:20;102151.34;;;14.45;93.00
48846;BME280;34665;51.886;5.436;2023-02-16T08:48:47;102157.13;;;14.42;92.74
48846;BME280;34665;51.886;5.436;2023-02-16T08:51:14;102155.41;;;14.71;91.91
48846;BME280;34665;51.886;5.436;2023-02-16T08:53:39;102166.41;;;15.13;89.59
48846;BME280;34665;51.886;5.436;2023-02-16T08:56:05;102166.09;;;15.30;87.46
48846;BME280;34665;51.886;5.436;2023-02-16T08:58:31;102170.78;;;15.21;87.31
48846;BME280;34665;51.886;5.436;2023-02-16T09:00:57;102177.72;;;14.87;89.33
48846;BME280;34665;51.886;5.436;2023-02-16T09:03:23;102167.28;;;14.99;88.51
48846;BME280;34665;51.886;5.436;2023-02-16T09:05:51;102172.22;;;15.17;87.76
48846;BME280;34665;51.886;5.436;2023-02-16T09:08:18;102169.72;;;14.94;89.90
48846;BME280;34665;51.886;5.436;2023-02-16T09:10:44;102172.72;;;14.84;92.17
48846;BME280;34665;51.886;5.436;2023-02-16T09:13:09;102171.19;;;14.59;95.58
48846;BME280;34665;51.886;5.436;2023-02-16T09:15:40;102173.56;;;14.69;96.42
48846;BME280;34665;51.886;5.436;2023-02-16T09:18:06;102175.94;;;14.94;94.87
48846;BME280;34665;51.886;5.436;2023-02-16T09:20:36;102167.69;;;14.59;99.32
48846;BME280;34665;51.886;5.436;2023-02-16T09:23:02;102168.31;;;14.98;97.19
48846;BME280;34665;51.886;5.436;2023-02-16T09:25:28;102169.47;;;14.88;95.85
48846;BME280;34665;51.886;5.436;2023-02-16T09:27:54;102170.75;;;14.56;98.76
48846;BME280;34665;51.886;5.436;2023-02-16T09:30:19;102158.88;;;14.87;100.00
48846;BME280;34665;51.886;5.436;2023-02-16T09:32:45;102171.16;;;14.74;100.00
48846;BME280;34665;51.886;5.436;2023-02-16T09:35:10;102160.88;;;14.63;100.00
48846;BME280;34665;51.886;5.436;2023-02-16T09:37:36;102175.75;;;14.74;100.00
48846;BME280;34665;51.886;5.436;2023-02-16T09:40:01;102167.28;;;14.77;100.00
48846;BME280;34665;51.886;5.436;2023-02-16T09:45:16;102174.25;;;14.56;100.00
48846;BME280;34665;51.886;5.436;2023-02-16T09:47:46;102172.06;;;14.45;100.00
48846;BME280;34665;51.886;5.436;2023-02-16T09:50:20;102171.94;;;14.01;100.00
48846;BME280;34665;51.886;5.436;2023-02-16T09:52:54;102165.16;;;14.05;100.00
48846;BME280;34665;51.886;5.436;2023-02-16T09:55:23;102169.03;;;14.33;100.00
48846;BME280;34665;51.886;5.436;2023-02-16T09:58:14;102163.69;;;14.55;100.00
48846;BME280;34665;51.886;5.436;2023-02-16T10:00:56;102167.72;;;14.29;100.00
48846;BME280;34665;51.886;5.436;2023-02-16T10:03:49;102162.25;;;14.37;100.00
48846;BME280;34665;51.886;5.436;2023-02-16T10:06:35;102176.03;;;14.49;100.00
48846;BME280;34665;51.886;5.436;2023-02-16T10:09:11;102173.06;;;14.59;100.00
48846;BME280;34665;51.886;5.436;2023-02-16T10:11:47;102162.28;;;14.96;100.00
48846;BME280;34665;51.886;5.436;2023-02-16T10:14:22;102174.22;;;14.34;100.00
48846;BME280;34665;51.886;5.436;2023-02-16T10:17:02;102174.75;;;14.45;100.00
48846;BME280;34665;51.886;5.436;2023-02-16T10:19:38;102152.97;;;14.25;100.00
48846;BME280;34665;51.886;5.436;2023-02-16T10:22:06;102157.25;;;14.34;100.00
48846;BME280;34665;51.886;5.436;2023-02-16T10:27:37;102172.50;;;14.48;100.00
48846;BME280;34665;51.886;5.436;2023-02-16T10:30:16;102164.75;;;14.24;100.00
48846;BME280;34665;51.886;5.436;2023-02-16T10:32:56;102170.53;;;14.57;100.00
48846;BME280;34665;51.886;5.436;2023-02-16T10:35:31;102166.13;;;14.34;100.00
48846;BME280;34665;51.886;5.436;2023-02-16T10:40:56;102172.13;;;14.52;100.00
48846;BME280;34665;51.886;5.436;2023-02-16T10:43:38;102166.25;;;14.63;100.00
48846;BME280;34665;51.886;5.436;2023-02-16T10:46:07;102169.16;;;14.76;100.00
48846;BME280;34665;51.886;5.436;2023-02-16T10:48:36;102176.50;;;15.61;100.00
48846;BME280;34665;51.886;5.436;2023-02-16T10:51:08;102172.94;;;15.54;100.00
48846;BME280;34665;51.886;5.436;2023-02-16T10:53:41;102176.03;;;15.51;100.00
48846;BME280;34665;51.886;5.436;2023-02-16T10:56:51;102174.22;;;15.58;100.00
48846;BME280;34665;51.886;5.436;2023-02-16T10:59:20;102174.47;;;15.35;100.00
48846;BME280;34665;51.886;5.436;2023-02-16T11:01:49;102161.88;;;15.20;100.00
48846;BME280;34665;51.886;5.436;2023-02-16T11:04:37;102163.69;;;15.35;100.00
48846;BME280;34665;51.886;5.436;2023-02-16T11:07:12;102168.09;;;15.21;100.00
48846;BME280;34665;51.886;5.436;2023-02-16T11:09:40;102160.44;;;15.46;100.00
48846;BME280;34665;51.886;5.436;2023-02-16T11:14:52;102155.91;;;15.82;100.00
48846;BME280;34665;51.886;5.436;2023-02-16T11:17:20;102157.28;;;15.43;100.00
48846;BME280;34665;51.886;5.436;2023-02-16T11:20:06;102158.38;;;14.76;100.00
48846;BME280;34665;51.886;5.436;2023-02-16T11:22:36;102159.03;;;15.00;100.00
48846;BME280;34665;51.886;5.436;2023-02-16T11:27:57;102159.69;;;15.31;100.00
48846;BME280;34665;51.886;5.436;2023-02-16T11:30:34;102146.94;;;15.46;100.00
48846;BME280;34665;51.886;5.436;2023-02-16T11:33:02;102147.41;;;15.50;100.00
48846;BME280;34665;51.886;5.436;2023-02-16T11:35:30;102142.88;;;15.29;100.00
48846;BME280;34665;51.886;5.436;2023-02-16T11:37:58;102140.81;;;15.59;100.00
48846;BME280;34665;51.886;5.436;2023-02-16T11:40:32;102139.84;;;15.96;100.00
48846;BME280;34665;51.886;5.436;2023-02-16T11:42:59;102133.59;;;16.51;100.00
48846;BME280;34665;51.886;5.436;2023-02-16T11:45:34;102132.09;;;16.34;100.00
48846;BME280;34665;51.886;5.436;2023-02-16T11:48:04;102125.56;;;15.73;100.00
48846;BME280;34665;51.886;5.436;2023-02-16T11:50:34;102118.13;;;15.82;100.00
48846;BME280;34665;51.886;5.436;2023-02-16T11:55:35;102119.50;;;16.00;100.00
48846;BME280;34665;51.886;5.436;2023-02-16T12:01:15;102116.81;;;16.62;100.00
48846;BME280;34665;51.886;5.436;2023-02-16T12:10:11;102116.41;;;16.65;100.00
48846;BME280;34665;51.886;5.436;2023-02-16T12:12:59;102112.06;;;17.38;100.00
48846;BME280;34665;51.886;5.436;2023-02-16T12:15:50;102110.44;;;17.24;100.00
48846;BME280;34665;51.886;5.436;2023-02-16T12:29:21;102088.88;;;18.35;100.00
48846;BME280;34665;51.886;5.436;2023-02-16T12:32:05;102090.88;;;18.78;100.00
48846;BME280;34665;51.886;5.436;2023-02-16T12:34:48;102089.13;;;19.98;98.53
48846;BME280;34665;51.886;5.436;2023-02-16T12:37:37;102084.00;;;20.08;95.18
48846;BME280;34665;51.886;5.436;2023-02-16T12:40:19;102072.16;;;20.02;93.59
48846;BME280;34665;51.886;5.436;2023-02-16T12:45:17;102068.72;;;21.28;87.07
48846;BME280;34665;51.886;5.436;2023-02-16T12:47:53;102059.50;;;20.81;84.85
48846;BME280;34665;51.886;5.436;2023-02-16T12:50:27;102055.56;;;20.23;86.87
48846;BME280;34665;51.886;5.436;2023-02-16T12:53:02;102061.81;;;20.11;89.68
48846;BME280;34665;51.886;5.436;2023-02-16T12:55:49;102061.47;;;20.19;87.95
48846;BME280;34665;51.886;5.436;2023-02-16T12:58:24;102049.06;;;20.24;92.06
48846;BME280;34665;51.886;5.436;2023-02-16T13:00:56;102056.41;;;20.77;88.36
48846;BME280;34665;51.886;5.436;2023-02-16T13:03:34;102054.28;;;21.51;86.70
48846;BME280;34665;51.886;5.436;2023-02-16T13:11:49;102034.09;;;23.42;77.62
48846;BME280;34665;51.886;5.436;2023-02-16T13:14:20;102040.88;;;23.39;77.03
48846;BME280;34665;51.886;5.436;2023-02-16T13:16:57;102041.13;;;22.01;75.66
48846;BME280;34665;51.886;5.436;2023-02-16T13:19:24;102028.69;;;22.05;80.63
48846;BME280;34665;51.886;5.436;2023-02-16T13:30:04;102030.31;;;19.73;88.92
48846;BME280;34665;51.886;5.436;2023-02-16T13:32:50;102013.91;;;20.29;90.01
48846;BME280;34665;51.886;5.436;2023-02-16T13:35:35;101996.63;;;20.11;89.78
48846;BME280;34665;51.886;5.436;2023-02-16T13:38:29;102005.75;;;19.49;90.29
48846;BME280;34665;51.886;5.436;2023-02-16T13:41:39;102010.72;;;19.33;92.04
48846;BME280;34665;51.886;5.436;2023-02-16T13:44:20;101997.59;;;18.68;98.87
48846;BME280;34665;51.886;5.436;2023-02-16T13:46:50;101996.75;;;20.83;88.87
48846;BME280;34665;51.886;5.436;2023-02-16T13:49:31;101983.91;;;20.24;89.54
48846;BME280;34665;51.886;5.436;2023-02-16T13:51:58;101979.16;;;20.07;89.52
48846;BME280;34665;51.886;5.436;2023-02-16T13:54:30;101974.84;;;20.30;87.68
48846;BME280;34665;51.886;5.436;2023-02-16T13:57:01;101981.66;;;21.40;81.60
48846;BME280;34665;51.886;5.436;2023-02-16T13:59:47;101964.16;;;21.76;79.15
48846;BME280;34665;51.886;5.436;2023-02-16T14:02:50;101961.13;;;21.61;78.41
48846;BME280;34665;51.886;5.436;2023-02-16T14:05:23;101955.16;;;21.47;78.48
48846;BME280;34665;51.886;5.436;2023-02-16T14:16:09;101957.47;;;21.67;75.78
48846;BME280;34665;51.886;5.436;2023-02-16T14:24:09;101960.22;;;20.78;78.00
48846;BME280;34665;51.886;5.436;2023-02-16T14:26:54;101955.22;;;20.40;78.82
48846;BME280;34665;51.886;5.436;2023-02-16T14:29:33;101952.16;;;20.48;78.43
48846;BME280;34665;51.886;5.436;2023-02-16T14:32:27;101951.66;;;19.85;81.87
48846;BME280;34665;51.886;5.436;2023-02-16T14:35:06;101934.69;;;20.32;82.07
48846;BME280;34665;51.886;5.436;2023-02-16T14:37:37;101932.78;;;20.32;80.61